Time;durP1;ratioP1;P1;durP2;ratioP2;P2;SDS_P1;SDS_P2;PMS_P1;PMS_P2;Temp;Humidity;BMP_temperature;BMP_pressure;BME280_temperature;BME280_humidity;BME280_pressure;Samples;Min_cycle;Max_cycle;Signal;HPM_P1;HPM_P2
2022/11/02 00:00:52;;;;;;;6.03;1.83;;;12.40;99.90;;;;;;5035283;28;20048;-70
2022/11/02 00:03:18;;;;;;;8.23;2.00;;;12.40;99.90;;;;;;5036197;28;20254;-70
2022/11/02 00:05:44;;;;;;;6.72;1.70;;;12.40;99.90;;;;;;5034897;28;20557;-70
2022/11/02 00:08:09;;;;;;;12.45;2.28;;;12.40;99.90;;;;;;5035568;28;20049;-70
2022/11/02 00:10:35;;;;;;;6.30;1.88;;;12.40;99.90;;;;;;5035383;28;20041;-70
2022/11/02 00:13:01;;;;;;;9.88;2.45;;;12.40;99.90;;;;;;5034481;28;20037;-70
2022/11/02 00:15:30;;;;;;;8.40;1.95;;;12.50;99.90;;;;;;5053735;28;20126;-70
2022/11/02 00:18:09;;;;;;;7.05;2.10;;;12.40;99.90;;;;;;5034928;28;20047;-70
2022/11/02 00:20:37;;;;;;;7.93;2.47;;;12.50;99.90;;;;;;5034279;28;20048;-70
2022/11/02 00:23:06;;;;;;;9.52;2.38;;;12.50;99.90;;;;;;5034880;28;20166;-70
2022/11/02 00:25:32;;;;;;;6.28;2.20;;;12.40;99.90;;;;;;5035559;28;20041;-71
2022/11/02 00:27:58;;;;;;;6.90;2.47;;;12.40;99.90;;;;;;5017585;28;20045;-69
2022/11/02 00:30:24;;;;;;;7.90;2.53;;;12.40;99.90;;;;;;5035055;28;20037;-69
2022/11/02 00:32:50;;;;;;;9.35;2.20;;;12.30;99.90;;;;;;5051625;28;20112;-69
2022/11/02 00:35:16;;;;;;;8.30;1.90;;;12.30;99.90;;;;;;5034991;28;20082;-70
2022/11/02 00:37:42;;;;;;;6.88;2.28;;;12.20;99.90;;;;;;5052979;28;20041;-71
2022/11/02 00:40:08;;;;;;;6.25;1.90;;;12.20;99.90;;;;;;5033163;28;20040;-71
2022/11/02 00:42:33;;;;;;;10.48;2.97;;;12.10;99.90;;;;;;5034647;28;20080;-70
2022/11/02 00:44:59;;;;;;;6.30;1.88;;;12.00;99.90;;;;;;5018805;28;20099;-70
2022/11/02 00:47:25;;;;;;;10.55;2.92;;;12.00;99.90;;;;;;5052240;28;20446;-71
2022/11/02 00:49:50;;;;;;;9.07;2.25;;;11.90;99.90;;;;;;5034613;28;20116;-71
2022/11/02 00:52:16;;;;;;;7.32;2.05;;;11.90;99.90;;;;;;5034781;28;20436;-71
2022/11/02 00:54:41;;;;;;;6.30;1.77;;;11.80;99.90;;;;;;5033726;28;20036;-71
2022/11/02 00:57:08;;;;;;;8.43;2.25;;;11.80;99.90;;;;;;5052489;28;20048;-71
2022/11/02 00:59:33;;;;;;;6.03;1.90;;;11.80;99.90;;;;;;5034506;28;20098;-71
2022/11/02 01:01:59;;;;;;;6.55;2.20;;;11.70;99.90;;;;;;5033940;28;20041;-71
2022/11/02 01:04:25;;;;;;;6.40;2.20;;;11.70;99.90;;;;;;5034690;28;20486;-71
2022/11/02 01:06:50;;;;;;;5.55;2.33;;;11.70;99.90;;;;;;5034091;28;20041;-71
2022/11/02 01:09:16;;;;;;;8.73;2.60;;;11.60;99.90;;;;;;5017308;28;20051;-71
2022/11/02 01:11:42;;;;;;;8.15;1.90;;;11.60;99.90;;;;;;5034451;28;20037;-71
2022/11/02 01:14:09;;;;;;;6.35;1.65;;;11.60;99.90;;;;;;5052259;28;20032;-71
2022/11/02 01:16:34;;;;;;;6.95;2.30;;;11.50;99.90;;;;;;5033423;28;20048;-71
2022/11/02 01:19:00;;;;;;;8.18;1.65;;;11.50;99.90;;;;;;5034301;28;20041;-71
2022/11/02 01:21:26;;;;;;;8.00;1.42;;;11.50;99.90;;;;;;5034664;28;20045;-71
2022/11/02 01:23:51;;;;;;;7.78;1.52;;;11.50;99.90;;;;;;5033066;28;20053;-71
2022/11/02 01:26:17;;;;;;;6.32;1.50;;;11.40;99.90;;;;;;5034326;28;20512;-71
2022/11/02 01:28:43;;;;;;;9.52;1.92;;;11.50;99.90;;;;;;5034134;28;20052;-70
2022/11/02 01:31:10;;;;;;;6.00;1.80;;;11.50;99.90;;;;;;5033266;28;20041;-70
2022/11/02 01:33:37;;;;;;;4.78;1.33;;;11.50;99.90;;;;;;5034100;28;20048;-70
2022/11/02 01:36:05;;;;;;;6.57;1.70;;;11.60;99.90;;;;;;5032976;28;20120;-70
2022/11/02 01:38:31;;;;;;;5.60;1.27;;;11.60;99.90;;;;;;5034257;28;20055;-70
2022/11/02 01:40:57;;;;;;;7.25;1.52;;;11.60;99.90;;;;;;5051669;28;20098;-71
2022/11/02 01:43:28;;;;;;;7.30;1.67;;;11.70;99.90;;;;;;5051186;28;20421;-70
2022/11/02 01:46:27;;;;;;;4.47;1.50;;;11.70;99.90;;;;;;5051527;28;20102;-70
2022/11/02 01:49:14;;;;;;;7.20;1.63;;;11.70;99.90;;;;;;5033295;28;20106;-70
2022/11/02 01:51:48;;;;;;;4.78;1.92;;;11.70;99.90;;;;;;5035932;28;20048;-70
2022/11/02 01:54:29;;;;;;;9.32;1.95;;;11.60;99.90;;;;;;5038595;28;20048;-71
2022/11/02 01:57:00;;;;;;;7.43;1.60;;;11.50;99.90;;;;;;5055535;28;20122;-71
2022/11/02 01:59:31;;;;;;;7.70;1.73;;;11.50;99.90;;;;;;5037509;28;20044;-71
2022/11/02 02:01:57;;;;;;;9.45;1.75;;;11.40;99.90;;;;;;5055472;28;20378;-71
2022/11/02 02:04:23;;;;;;;7.28;1.70;;;11.40;99.90;;;;;;5055048;28;20060;-71
2022/11/02 02:06:50;;;;;;;6.38;1.42;;;11.30;99.90;;;;;;5055297;28;20045;-71
2022/11/02 02:09:16;;;;;;;9.68;1.92;;;11.30;99.90;;;;;;5055625;28;20083;-71
2022/11/02 02:11:42;;;;;;;8.15;1.98;;;11.20;99.90;;;;;;5036802;28;20060;-71
2022/11/02 02:14:17;;;;;;;6.47;1.50;;;11.10;99.90;;;;;;5055364;28;20041;-71
2022/11/02 02:17:12;;;;;;;3.80;1.20;;;11.10;99.90;;;;;;5055664;28;20029;-71
2022/11/02 02:19:50;;;;;;;8.38;1.65;;;11.10;99.90;;;;;;5036607;28;20041;-71
2022/11/02 02:23:03;;;;;;;5.72;1.33;;;11.00;99.90;;;;;;5037427;28;20140;-71
2022/11/02 02:25:53;;;;;;;5.80;1.42;;;11.00;99.90;;;;;;5036951;28;20502;-71
2022/11/02 02:28:25;;;;;;;6.70;1.30;;;11.10;99.90;;;;;;5037328;28;20037;-71
2022/11/02 02:30:56;;;;;;;6.10;1.50;;;11.10;99.90;;;;;;5037078;28;20041;-71
2022/11/02 02:33:57;;;;;;;8.77;2.03;;;11.00;99.90;;;;;;5036643;28;20087;-71
2022/11/02 02:36:37;;;;;;;7.90;2.30;;;11.00;99.90;;;;;;5037439;28;20124;-71
2022/11/02 02:39:16;;;;;;;8.07;1.30;;;10.90;99.90;;;;;;5037322;28;20382;-70
2022/11/02 02:41:53;;;;;;;7.93;1.75;;;10.90;99.90;;;;;;5055016;28;20045;-70
2022/11/02 02:44:25;;;;;;;5.57;1.40;;;10.90;99.90;;;;;;5037157;28;20060;-70
2022/11/02 02:46:59;;;;;;;2.97;1.20;;;10.90;99.90;;;;;;5035741;28;20080;-70
2022/11/02 02:49:32;;;;;;;4.57;1.80;;;10.80;99.90;;;;;;5037100;28;20119;-70
2022/11/02 02:51:59;;;;;;;5.22;1.90;;;10.80;99.90;;;;;;5036851;28;20036;-70
2022/11/02 02:54:34;;;;;;;5.13;1.73;;;10.80;99.90;;;;;;5036447;28;20074;-69
2022/11/02 02:57:02;;;;;;;;;;;10.80;99.90;;;;;;5037287;28;20029;-70
2022/11/02 02:59:36;;;;;;;5.10;1.40;;;10.80;99.90;;;;;;5037024;28;19923;-71
2022/11/02 03:02:05;;;;;;;5.68;1.30;;;10.80;99.90;;;;;;5018538;28;20083;-69
2022/11/02 03:04:31;;;;;;;3.45;1.17;;;10.90;99.90;;;;;;5020286;28;20098;-69
2022/11/02 03:07:00;;;;;;;5.05;1.73;;;10.90;99.90;;;;;;5036311;28;20440;-69
2022/11/02 03:09:45;;;;;;;2.50;0.63;;;11.00;99.90;;;;;;5053745;28;20051;-69
2022/11/02 03:12:11;;;;;;;4.88;1.73;;;11.00;99.90;;;;;;5054492;28;20047;-70
2022/11/02 03:14:48;;;;;;;9.13;2.05;;;11.00;99.90;;;;;;5035560;28;20044;-69
2022/11/02 03:17:17;;;;;;;4.45;1.13;;;11.00;99.90;;;;;;5054445;28;20393;-70
2022/11/02 03:19:51;;;;;;;3.85;1.17;;;11.00;99.90;;;;;;5036562;28;20389;-69
2022/11/02 03:22:27;;;;;;;6.13;1.35;;;11.00;99.90;;;;;;5019404;28;20198;-69
2022/11/02 03:25:13;;;;;;;4.28;1.33;;;11.00;99.90;;;;;;5054001;28;20399;-70
2022/11/02 03:27:43;;;;;;;12.35;1.63;;;11.00;99.90;;;;;;5036384;28;20477;-69
2022/11/02 03:30:11;;;;;;;5.60;1.00;;;11.00;99.90;;;;;;5053227;28;20103;-69
2022/11/02 03:32:58;;;;;;;4.10;1.15;;;10.90;99.90;;;;;;5053885;28;20094;-69
2022/11/02 03:35:42;;;;;;;4.70;1.10;;;10.90;99.90;;;;;;5054003;28;20037;-69
2022/11/02 03:38:20;;;;;;;5.13;1.15;;;11.00;99.90;;;;;;5036205;28;20048;-69
2022/11/02 03:40:49;;;;;;;5.53;1.20;;;10.90;99.90;;;;;;5035728;28;20045;-69
2022/11/02 03:43:17;;;;;;;5.95;1.38;;;10.90;99.90;;;;;;5035758;28;20444;-70
2022/11/02 03:45:50;;;;;;;6.05;1.48;;;10.90;99.90;;;;;;5035650;28;20053;-69
2022/11/02 03:48:18;;;;;;;5.97;1.00;;;10.90;99.90;;;;;;5036020;28;20098;-70
2022/11/02 03:50:50;;;;;;;3.78;1.15;;;10.80;99.90;;;;;;5035000;28;20072;-70
2022/11/02 03:53:21;;;;;;;12.43;2.20;;;10.90;99.90;;;;;;5053711;28;20068;-69
2022/11/02 03:55:51;;;;;;;7.35;1.52;;;10.80;99.90;;;;;;5035400;28;20488;-70
2022/11/02 03:58:17;;;;;;;7.05;1.55;;;10.80;99.90;;;;;;5053120;28;20087;-70
2022/11/02 04:00:49;;;;;;;7.93;1.60;;;10.80;99.90;;;;;;5035478;28;20044;-70
2022/11/02 04:03:16;;;;;;;7.18;2.00;;;10.80;99.90;;;;;;5035817;28;20051;-70
2022/11/02 04:05:42;;;;;;;7.80;1.80;;;10.80;99.90;;;;;;5052425;28;20041;-69
2022/11/02 04:08:23;;;;;;;8.65;1.77;;;10.80;99.90;;;;;;5053116;28;20044;-70
2022/11/02 04:16:18;;;;;;;15.50;2.50;;;10.90;99.90;;;;;;5035281;28;20083;-70
2022/11/02 04:21:29;;;;;;;11.70;2.53;;;10.90;99.90;;;;;;5053481;28;20467;-70
2022/11/02 04:26:39;;;;;;;13.37;2.13;;;11.00;99.90;;;;;;5034242;28;20041;-69
2022/11/02 04:29:05;;;;;;;7.47;1.95;;;11.00;99.90;;;;;;5052709;28;20345;-70
2022/11/02 04:31:30;;;;;;;11.55;2.78;;;11.00;99.90;;;;;;5053006;28;20032;-71
2022/11/02 04:33:59;;;;;;;8.10;2.30;;;11.00;99.90;;;;;;5051799;28;20473;-71
2022/11/02 04:36:28;;;;;;;10.55;2.28;;;11.00;99.90;;;;;;5035045;28;20039;-70
2022/11/02 04:38:53;;;;;;;8.93;1.88;;;11.00;99.90;;;;;;5051510;28;20076;-70
2022/11/02 04:44:05;;;;;;;10.48;2.20;;;11.00;99.90;;;;;;5034472;28;20048;-67
2022/11/02 04:46:33;;;;;;;8.73;2.30;;;11.00;99.90;;;;;;5052117;28;20084;-70
2022/11/02 04:48:59;;;;;;;6.10;2.00;;;11.00;99.90;;;;;;5018226;28;20128;-70
2022/11/02 04:51:26;;;;;;;11.52;2.30;;;11.00;99.90;;;;;;5052685;28;20073;-70
2022/11/02 04:53:53;;;;;;;9.05;2.00;;;11.00;99.90;;;;;;5033379;28;20033;-70
2022/11/02 04:56:19;;;;;;;10.43;2.40;;;11.00;99.90;;;;;;5052446;28;20036;-69
2022/11/02 04:58:53;;;;;;;8.00;2.20;;;11.00;99.90;;;;;;5034249;28;20531;-70
2022/11/02 05:01:21;;;;;;;12.07;2.42;;;11.00;99.90;;;;;;5033786;28;20048;-69
2022/11/02 05:03:48;;;;;;;10.55;2.47;;;10.90;99.90;;;;;;5017519;28;20037;-70
2022/11/02 05:06:14;;;;;;;9.57;2.30;;;10.90;99.90;;;;;;5052466;28;20040;-67
2022/11/02 05:08:40;;;;;;;7.18;2.55;;;10.90;99.90;;;;;;5033528;28;20106;-70
2022/11/02 05:11:05;;;;;;;9.88;2.10;;;10.90;99.90;;;;;;5051936;28;20478;-70
2022/11/02 05:13:31;;;;;;;9.10;2.03;;;11.00;99.90;;;;;;5052171;28;20039;-70
2022/11/02 05:15:58;;;;;;;9.57;2.13;;;10.90;99.90;;;;;;5033644;28;20036;-69
2022/11/02 05:18:26;;;;;;;10.02;2.55;;;10.90;99.90;;;;;;5034575;28;20044;-69
2022/11/02 05:20:53;;;;;;;9.13;2.75;;;10.90;99.90;;;;;;5034196;28;20398;-69
2022/11/02 05:23:20;;;;;;;7.30;2.00;;;10.90;99.90;;;;;;5050915;28;20057;-69
2022/11/02 05:25:56;;;;;;;8.55;2.53;;;10.90;99.90;;;;;;5033212;28;20063;-69
2022/11/02 05:28:22;;;;;;;8.90;2.42;;;10.90;99.90;;;;;;5051170;28;20045;-70
2022/11/02 05:30:48;;;;;;;11.35;2.28;;;10.90;99.90;;;;;;5017672;28;20056;-69
2022/11/02 05:33:14;;;;;;;8.75;2.35;;;10.90;99.90;;;;;;5052067;28;20510;-69
2022/11/02 05:35:40;;;;;;;8.63;1.85;;;10.90;99.90;;;;;;5033124;28;20052;-70
2022/11/02 05:38:05;;;;;;;8.50;1.52;;;10.90;99.90;;;;;;5033854;28;20037;-69
2022/11/02 05:40:32;;;;;;;9.13;2.13;;;10.90;99.90;;;;;;5052187;28;20095;-70
2022/11/02 05:43:02;;;;;;;10.73;2.65;;;10.90;99.90;;;;;;5033172;28;20091;-70
2022/11/02 05:45:28;;;;;;;11.55;2.63;;;10.90;99.90;;;;;;5052121;28;20044;-69
2022/11/02 05:47:54;;;;;;;6.63;1.70;;;10.90;99.90;;;;;;5051470;28;20049;-70
2022/11/02 05:50:20;;;;;;;9.70;2.15;;;10.90;99.90;;;;;;5033424;28;20037;-70
2022/11/02 05:52:46;;;;;;;13.07;2.92;;;10.90;99.90;;;;;;5033474;28;20071;-69
2022/11/02 05:55:12;;;;;;;11.93;2.83;;;10.90;99.90;;;;;;5034086;28;20043;-70
2022/11/02 05:57:38;;;;;;;10.77;2.50;;;10.90;99.90;;;;;;5033177;28;20037;-70
2022/11/02 06:00:06;;;;;;;8.10;2.33;;;10.90;99.90;;;;;;5033773;28;20555;-71
2022/11/02 06:02:34;;;;;;;17.00;2.83;;;10.90;99.90;;;;;;5051914;28;20099;-72
2022/11/02 06:05:00;;;;;;;10.27;2.50;;;10.90;99.90;;;;;;5032952;28;20047;-70
2022/11/02 06:07:26;;;;;;;10.35;2.95;;;10.90;99.90;;;;;;5033956;28;20138;-71
2022/11/02 06:09:51;;;;;;;11.40;2.63;;;10.90;99.90;;;;;;5033198;28;20044;-71
2022/11/02 06:12:17;;;;;;;16.55;3.25;;;10.90;99.90;;;;;;5051142;28;20041;-72
2022/11/02 06:14:43;;;;;;;11.25;2.50;;;10.90;99.90;;;;;;5033767;28;20041;-72
2022/11/02 06:17:08;;;;;;;9.30;2.53;;;10.90;99.90;;;;;;5033600;28;20425;-72
2022/11/02 06:19:34;;;;;;;11.18;2.30;;;10.90;99.90;;;;;;5032997;28;20106;-72
2022/11/02 06:21:59;;;;;;;10.23;3.05;;;10.90;99.90;;;;;;5033569;28;20056;-71
2022/11/02 06:24:25;;;;;;;11.25;2.72;;;10.80;99.90;;;;;;5031009;28;20053;-71
2022/11/02 06:26:51;;;;;;;12.20;3.15;;;10.90;99.90;;;;;;5013475;28;20056;-71
2022/11/02 06:29:17;;;;;;;10.15;2.60;;;10.90;99.90;;;;;;5031627;28;20042;-72
2022/11/02 06:31:42;;;;;;;15.20;3.40;;;10.90;99.90;;;;;;5013137;28;20041;-71
2022/11/02 06:34:08;;;;;;;13.30;2.88;;;10.90;99.90;;;;;;5013606;28;20083;-71
2022/11/02 06:36:34;;;;;;;7.95;2.63;;;10.90;99.90;;;;;;5014084;28;20057;-71
2022/11/02 06:38:59;;;;;;;13.13;2.60;;;10.90;99.90;;;;;;5015775;28;20088;-71
2022/11/02 06:41:25;;;;;;;7.60;2.00;;;10.90;99.90;;;;;;5017854;28;20049;-70
2022/11/02 06:43:50;;;;;;;7.20;1.70;;;10.80;99.90;;;;;;5000436;28;20042;-73
2022/11/02 06:46:16;;;;;;;8.60;1.70;;;10.80;99.90;;;;;;5016917;28;20045;-70
2022/11/02 06:48:42;;;;;;;6.13;1.55;;;10.70;99.90;;;;;;5000588;28;20052;-69
2022/11/02 06:51:08;;;;;;;8.00;2.47;;;10.70;99.90;;;;;;5034957;28;20041;-70
2022/11/02 06:53:34;;;;;;;9.23;1.60;;;10.70;99.90;;;;;;5015859;28;20166;-71
2022/11/02 06:56:00;;;;;;;9.88;1.70;;;10.60;99.90;;;;;;5037064;28;20052;-72
2022/11/02 06:58:26;;;;;;;8.45;2.13;;;10.60;99.90;;;;;;5021438;28;20064;-71
2022/11/02 07:01:05;;;;;;;7.82;1.63;;;10.50;99.90;;;;;;5006209;28;20056;-72
2022/11/02 07:03:31;;;;;;;8.68;2.00;;;10.50;99.90;;;;;;5014503;28;20506;-71
2022/11/02 07:05:57;;;;;;;10.90;2.97;;;10.40;99.90;;;;;;5030020;28;20053;-72
2022/11/02 07:08:23;;;;;;;11.82;2.72;;;10.40;99.90;;;;;;5009948;28;20061;-70
2022/11/02 07:10:49;;;;;;;13.25;2.45;;;10.40;99.90;;;;;;5023797;28;20034;-69
2022/11/02 07:13:15;;;;;;;6.75;2.17;;;10.40;99.90;;;;;;5014212;28;20052;-69
2022/11/02 07:15:41;;;;;;;10.15;2.00;;;10.40;99.90;;;;;;5013271;28;20049;-69
2022/11/02 07:18:07;;;;;;;7.00;2.03;;;10.50;99.90;;;;;;5014177;28;20052;-68
2022/11/02 07:20:34;;;;;;;8.73;2.20;;;10.50;99.90;;;;;;5031651;28;20548;-69
2022/11/02 07:23:01;;;;;;;12.35;2.63;;;10.50;99.90;;;;;;5005076;28;20140;-68
2022/11/02 07:25:31;;;;;;;6.45;2.00;;;10.40;99.90;;;;;;5033590;28;20493;-68
2022/11/02 07:28:00;;;;;;;8.43;1.95;;;10.40;99.90;;;;;;5029275;28;20049;-68
2022/11/02 07:30:29;;;;;;;8.73;2.03;;;10.40;99.90;;;;;;5013835;28;20070;-69
2022/11/02 07:32:54;;;;;;;13.75;2.72;;;10.40;99.90;;;;;;5013889;28;20041;-69
2022/11/02 07:35:20;;;;;;;8.73;2.05;;;10.40;99.90;;;;;;5030195;28;20064;-71
2022/11/02 07:38:00;;;;;;;13.52;2.42;;;10.40;99.90;;;;;;5013736;28;20095;-71
2022/11/02 07:40:28;;;;;;;8.15;1.98;;;10.50;99.90;;;;;;4998391;28;20045;-70
2022/11/02 07:42:54;;;;;;;8.18;2.47;;;10.60;99.90;;;;;;5013347;28;20064;-72
2022/11/02 07:45:21;;;;;;;7.05;2.25;;;10.60;99.90;;;;;;5034191;28;20512;-68
2022/11/02 07:47:47;;;;;;;8.65;1.80;;;10.80;99.90;;;;;;5033065;28;20090;-68
2022/11/02 07:50:15;;;;;;;5.53;2.40;;;10.90;99.90;;;;;;5050554;28;20068;-70
2022/11/02 07:52:44;;;;;;;11.02;2.83;;;11.00;99.90;;;;;;5030121;28;20128;-69
2022/11/02 07:55:11;;;;;;;7.63;2.00;;;11.10;99.90;;;;;;5049290;28;20037;-68
2022/11/02 07:57:36;;;;;;;9.88;2.63;;;11.20;99.90;;;;;;5049289;28;20044;-66
2022/11/02 08:00:04;;;;;;;10.05;2.13;;;11.30;99.90;;;;;;5015469;28;20049;-66
2022/11/02 08:02:30;;;;;;;9.18;2.15;;;11.30;99.90;;;;;;5065775;28;20041;-67
2022/11/02 08:04:57;;;;;;;11.55;2.13;;;11.30;99.90;;;;;;5040859;28;20066;-68
2022/11/02 08:07:23;;;;;;;4.78;1.60;;;11.20;99.90;;;;;;5030683;28;20094;-68
2022/11/02 08:09:50;;;;;;;8.88;1.60;;;11.10;99.90;;;;;;5007227;28;20087;-67
2022/11/02 08:12:18;;;;;;;6.45;1.67;;;11.10;99.90;;;;;;5040154;28;20040;-68
2022/11/02 08:14:44;;;;;;;7.68;1.92;;;11.00;99.90;;;;;;5015562;28;20069;-67
2022/11/02 08:17:10;;;;;;;3.53;1.38;;;11.00;99.90;;;;;;5031645;28;20891;-67
2022/11/02 08:19:36;;;;;;;6.63;1.67;;;11.00;99.90;;;;;;5031876;28;20076;-67
2022/11/02 08:22:02;;;;;;;12.35;2.92;;;11.10;99.90;;;;;;5032188;28;20087;-67
2022/11/02 08:24:28;;;;;;;8.10;1.98;;;11.30;99.90;;;;;;5049245;28;20049;-69
2022/11/02 08:26:53;;;;;;;10.15;2.40;;;11.50;99.90;;;;;;5028406;28;20048;-70
2022/11/02 08:29:19;;;;;;;9.63;2.53;;;11.60;99.90;;;;;;5047923;28;20045;-68
2022/11/02 08:31:46;;;;;;;10.90;2.72;;;11.80;99.90;;;;;;5031613;28;20045;-69
2022/11/02 08:34:11;;;;;;;10.30;2.42;;;11.90;99.90;;;;;;5050462;28;20577;-69
2022/11/02 08:36:37;;;;;;;24.63;11.48;;;12.00;99.90;;;;;;5031964;28;20047;-69
2022/11/02 08:39:03;;;;;;;53.95;33.05;;;12.00;99.90;;;;;;5031549;28;20052;-69
2022/11/02 08:41:28;;;;;;;22.45;13.45;;;12.00;99.90;;;;;;5029064;28;20049;-68
2022/11/02 08:43:55;;;;;;;16.23;8.38;;;12.10;99.90;;;;;;5024539;28;20053;-68
2022/11/02 08:46:22;;;;;;;14.43;5.90;;;12.00;99.90;;;;;;5030984;28;20052;-68
2022/11/02 08:48:47;;;;;;;15.38;7.30;;;12.10;99.90;;;;;;5049108;28;20548;-69
2022/11/02 08:51:13;;;;;;;17.33;12.85;;;12.10;99.90;;;;;;5032254;28;20171;-70
2022/11/02 08:53:39;;;;;;;16.13;9.40;;;12.10;99.90;;;;;;5049128;28;20086;-69
2022/11/02 08:56:05;;;;;;;13.95;4.82;;;12.20;99.90;;;;;;5028905;28;20045;-71
2022/11/02 08:58:31;;;;;;;9.52;4.45;;;12.20;99.90;;;;;;5012687;28;20471;-70
2022/11/02 09:00:57;;;;;;;12.90;3.28;;;12.20;99.90;;;;;;5044574;28;20170;-69
2022/11/02 09:03:27;;;;;;;13.18;3.63;;;12.20;99.90;;;;;;5031773;28;20521;-70
2022/11/02 09:05:57;;;;;;;9.98;2.78;;;12.20;99.90;;;;;;5029763;28;20080;-70
2022/11/02 09:08:24;;;;;;;10.15;3.03;;;12.30;99.90;;;;;;5049312;28;20079;-69
2022/11/02 09:10:51;;;;;;;10.40;3.10;;;12.30;99.90;;;;;;5031365;28;20052;-71
2022/11/02 09:13:19;;;;;;;11.68;3.13;;;12.40;99.90;;;;;;5048856;28;20041;-70
2022/11/02 09:15:49;;;;;;;14.95;3.85;;;12.40;99.90;;;;;;5031212;28;20049;-70
2022/11/02 09:18:14;;;;;;;10.27;2.90;;;12.30;99.90;;;;;;5028423;28;20037;-70
2022/11/02 09:20:40;;;;;;;11.68;3.45;;;12.30;99.90;;;;;;5011056;28;20505;-69
2022/11/02 09:23:05;;;;;;;11.40;2.13;;;12.30;99.90;;;;;;5032326;28;20186;-70
2022/11/02 09:25:31;;;;;;;10.15;2.40;;;12.30;99.90;;;;;;5031710;28;20052;-70
2022/11/02 09:27:57;;;;;;;15.32;4.32;;;12.30;99.90;;;;;;5030246;28;20063;-69
2022/11/02 09:30:24;;;;;;;16.83;5.53;;;12.30;99.90;;;;;;5031782;28;20052;-69
2022/11/02 09:32:58;;;;;;;14.73;4.47;;;12.30;99.90;;;;;;5030890;28;20049;-69
2022/11/02 09:35:25;;;;;;;17.67;6.80;;;12.30;99.90;;;;;;5030979;28;20436;-69
2022/11/02 09:37:51;;;;;;;17.33;7.40;;;12.40;99.90;;;;;;5030170;28;20033;-69
2022/11/02 09:40:21;;;;;;;13.88;4.53;;;12.40;99.90;;;;;;5032051;28;20060;-69
2022/11/02 09:43:17;;;;;;;8.20;2.72;;;12.60;99.90;;;;;;5048604;28;20068;-70
2022/11/02 09:45:54;;;;;;;11.60;3.70;;;12.70;99.90;;;;;;5028070;28;20128;-68
2022/11/02 09:49:04;;;;;;;10.18;3.20;;;12.80;99.90;;;;;;5034842;28;20047;-67
2022/11/02 09:51:37;;;;;;;9.63;3.88;;;12.80;99.90;;;;;;5019077;28;20485;-70
2022/11/02 09:54:24;;;;;;;13.20;3.83;;;12.90;99.90;;;;;;5044137;28;20045;-70
2022/11/02 09:56:51;;;;;;;10.02;2.70;;;12.90;99.90;;;;;;5029855;28;20051;-70
2022/11/02 09:59:19;;;;;;;11.82;2.60;;;12.90;99.90;;;;;;5013738;28;20048;-70
2022/11/02 10:02:03;;;;;;;11.70;3.13;;;12.90;99.90;;;;;;5047480;28;20049;-69
2022/11/02 10:05:16;;;;;;;9.18;2.53;;;12.90;99.90;;;;;;5009340;28;20553;-69
2022/11/02 10:07:57;;;;;;;15.50;3.10;;;12.90;99.90;;;;;;5041170;28;20055;-69
2022/11/02 10:10:49;;;;;;;11.98;3.25;;;12.80;99.90;;;;;;5029185;28;20128;-70
2022/11/02 10:13:40;;;;;;;9.43;3.13;;;12.70;99.90;;;;;;5032113;28;20041;-68
2022/11/02 10:16:14;;;;;;;9.90;2.72;;;12.80;99.90;;;;;;5050036;28;20095;-70
2022/11/02 10:18:41;;;;;;;12.75;3.10;;;12.80;99.90;;;;;;5050789;28;20049;-70
2022/11/02 10:21:14;;;;;;;11.35;3.05;;;12.70;99.90;;;;;;5032957;28;20499;-71
2022/11/02 10:23:48;;;;;;;12.18;2.85;;;12.70;99.90;;;;;;5032964;28;20057;-70
2022/11/02 10:26:18;;;;;;;9.93;2.65;;;12.80;99.90;;;;;;5051785;28;20409;-70
2022/11/02 10:28:48;;;;;;;11.73;2.42;;;12.80;99.90;;;;;;5033933;28;20041;-69
2022/11/02 10:31:28;;;;;;;9.95;2.95;;;12.80;99.90;;;;;;5050926;28;20056;-68
2022/11/02 10:33:55;;;;;;;11.25;2.33;;;12.90;99.90;;;;;;5032591;28;20040;-69
2022/11/02 10:36:53;;;;;;;8.90;2.55;;;12.90;99.90;;;;;;5051669;28;20124;-69
2022/11/02 10:39:33;;;;;;;13.15;2.58;;;13.00;99.90;;;;;;5012822;28;20046;-69
2022/11/02 10:42:10;;;;;;;11.48;2.70;;;13.00;99.90;;;;;;5016485;28;20405;-67
2022/11/02 10:44:50;;;;;;;12.48;2.60;;;13.00;99.90;;;;;;5034201;28;20037;-67
2022/11/02 10:47:26;;;;;;;13.35;2.47;;;13.10;99.90;;;;;;5017412;28;20041;-67
2022/11/02 10:50:30;;;;;;;9.10;1.95;;;13.10;99.90;;;;;;5030813;28;20049;-67
2022/11/02 10:52:59;;;;;;;9.13;2.20;;;13.30;99.90;;;;;;4990500;28;20195;-68
2022/11/02 10:55:32;;;;;;;14.52;2.42;;;13.40;99.90;;;;;;5036804;28;20048;-68
2022/11/02 10:58:02;;;;;;;8.48;1.83;;;13.40;99.90;;;;;;5024978;28;20044;-69
2022/11/02 11:00:30;;;;;;;7.45;2.30;;;13.40;99.90;;;;;;5030503;28;20048;-68
2022/11/02 11:03:08;;;;;;;10.85;2.70;;;13.50;99.90;;;;;;4996660;28;20482;-68
2022/11/02 11:05:41;;;;;;;11.27;2.83;;;13.50;99.90;;;;;;5014108;28;20132;-69
2022/11/02 11:08:30;;;;;;;8.07;2.20;;;13.50;99.90;;;;;;5007543;28;20045;-69
2022/11/02 11:11:29;;;;;;;7.15;1.90;;;13.50;99.90;;;;;;5030712;28;20040;-69
2022/11/02 11:14:02;;;;;;;7.13;2.20;;;13.50;99.90;;;;;;5030713;28;20836;-68
2022/11/02 11:17:01;;;;;;;6.88;1.85;;;13.50;99.90;;;;;;5013530;28;20049;-69
2022/11/02 11:19:39;;;;;;;9.00;1.98;;;13.50;99.90;;;;;;5015027;28;20041;-69
2022/11/02 11:22:22;;;;;;;7.78;1.85;;;13.50;99.90;;;;;;5042949;28;20045;-69
2022/11/02 11:24:48;;;;;;;9.80;2.17;;;13.40;99.90;;;;;;5034913;28;20041;-69
2022/11/02 11:27:19;;;;;;;9.00;2.13;;;13.40;99.90;;;;;;5019049;28;20086;-69
2022/11/02 11:29:53;;;;;;;10.55;2.33;;;13.30;99.90;;;;;;5031561;28;20045;-75
2022/11/02 11:32:27;;;;;;;7.80;1.77;;;13.20;99.90;;;;;;5017159;28;20033;-70
2022/11/02 11:35:03;;;;;;;7.03;2.05;;;13.10;99.90;;;;;;5029232;28;20048;-68
2022/11/02 11:37:29;;;;;;;13.40;2.42;;;13.00;99.90;;;;;;5031363;28;20048;-67
2022/11/02 11:40:03;;;;;;;10.85;2.55;;;13.00;99.90;;;;;;5052479;28;20447;-70
2022/11/02 11:42:33;;;;;;;14.23;3.08;;;13.10;99.90;;;;;;5035823;28;20052;-69
2022/11/02 11:45:16;;;;;;;9.98;1.95;;;13.10;99.90;;;;;;5018715;28;20454;-69
2022/11/02 11:47:42;;;;;;;8.23;2.42;;;13.20;99.90;;;;;;5036227;28;20457;-69
2022/11/02 11:50:14;;;;;;;8.90;2.00;;;13.30;99.90;;;;;;5052772;28;20076;-67
2022/11/02 11:52:40;;;;;;;13.70;2.83;;;13.40;99.90;;;;;;5019120;28;20041;-68
2022/11/02 11:55:26;;;;;;;17.73;2.63;;;13.40;99.90;;;;;;5034666;28;20082;-68
2022/11/02 11:58:05;;;;;;;9.02;1.75;;;13.40;99.90;;;;;;5035352;28;20033;-68
2022/11/02 12:00:31;;;;;;;4.88;1.48;;;13.50;99.90;;;;;;5053868;28;20401;-67
2022/11/02 12:03:10;;;;;;;12.13;2.47;;;13.50;99.90;;;;;;5052177;28;20092;-67
2022/11/02 12:05:57;;;;;;;7.10;1.65;;;13.60;99.90;;;;;;5035402;28;20045;-69
2022/11/02 12:08:44;;;;;;;7.15;1.73;;;13.60;99.90;;;;;;5053402;28;20049;-68
2022/11/02 12:11:16;;;;;;;10.15;2.25;;;13.60;99.90;;;;;;5018655;28;20169;-69
2022/11/02 12:13:49;;;;;;;11.55;2.67;;;13.50;99.90;;;;;;5035093;28;20124;-69
2022/11/02 12:16:23;;;;;;;16.88;3.00;;;13.60;99.90;;;;;;5034656;28;20048;-68
2022/11/02 12:19:11;;;;;;;11.55;3.20;;;13.60;99.90;;;;;;5053039;28;20044;-69
2022/11/02 12:21:55;;;;;;;7.22;1.77;;;13.50;99.90;;;;;;5053283;28;20059;-69
2022/11/02 12:24:34;;;;;;;9.32;2.17;;;13.30;99.90;;;;;;5034380;28;20075;-69
2022/11/02 12:27:26;;;;;;;9.18;2.38;;;13.30;99.90;;;;;;5035169;28;20044;-69
2022/11/02 12:30:03;;;;;;;9.55;2.40;;;13.20;99.90;;;;;;5034528;28;20059;-67
2022/11/02 12:33:07;;;;;;;9.57;2.65;;;13.10;99.90;;;;;;5018881;28;20032;-68
2022/11/02 12:35:42;;;;;;;9.40;1.67;;;13.10;99.90;;;;;;5034286;28;20091;-69
2022/11/02 12:38:26;;;;;;;11.48;2.45;;;13.10;99.90;;;;;;5034104;28;20048;-69
2022/11/02 12:41:06;;;;;;;7.30;2.45;;;13.20;99.90;;;;;;5017887;28;20041;-67
2022/11/02 12:43:42;;;;;;;7.38;2.00;;;13.30;99.90;;;;;;5034983;28;20032;-67
2022/11/02 12:46:20;;;;;;;12.30;2.80;;;13.50;99.90;;;;;;5033938;28;20123;-67
2022/11/02 12:49:15;;;;;;;17.13;4.53;;;13.60;99.90;;;;;;5017913;28;20513;-67
2022/11/02 12:52:08;;;;;;;10.48;2.88;;;13.80;99.90;;;;;;5016785;28;20079;-69
2022/11/02 12:54:49;;;;;;;10.52;2.45;;;13.90;99.90;;;;;;5034653;28;20560;-69
2022/11/02 12:57:18;;;;;;;10.93;2.92;;;13.90;99.90;;;;;;5034745;28;20036;-69
2022/11/02 12:59:46;;;;;;;8.25;2.35;;;13.90;99.90;;;;;;5033681;28;20043;-68
2022/11/02 13:02:25;;;;;;;9.73;2.88;;;13.90;99.90;;;;;;5052375;28;20565;-68
2022/11/02 13:05:11;;;;;;;8.25;2.20;;;13.80;99.90;;;;;;5034146;28;20528;-68
2022/11/02 13:07:53;;;;;;;10.57;2.28;;;13.90;99.90;;;;;;5051891;28;20051;-69
2022/11/02 13:10:41;;;;;;;11.48;2.33;;;13.80;99.90;;;;;;5017951;28;20045;-69
2022/11/02 13:13:15;;;;;;;8.20;2.08;;;13.80;99.90;;;;;;5051468;28;20033;-69
2022/11/02 13:15:44;;;;;;;10.32;2.65;;;13.80;99.90;;;;;;5052121;28;20029;-68
2022/11/02 13:18:25;;;;;;;9.77;2.47;;;13.80;99.90;;;;;;5034724;28;20047;-69